Terminal Aerodrome Forecast
Issued by NWS Jacksonville, FL

Home | Current Version | Previous Version | Text Only | Print | Product List | Glossary On
Versions: 1 2 3 4 5 6 7 8 9 10 11 12 13 14 15
000
FTUS42 KJAX 210300 AAA
TAFGNV
TAF AMD
KGNV 210339Z 2104/2124 06006KT P6SM VCSH SCT008 SCT025 BKN080
     FM210500 03003KT 6SM BR OVC007
     FM210900 00000KT 3SM BR OVC004
     FM211400 09005KT P6SM SCT004 BKN020 OVC150=

USA.gov is the U.S. government's official web portal to all federal, state and local government web resources and services.